Time;durP1;ratioP1;P1;durP2;ratioP2;P2;SDS_P1;SDS_P2;PMS_P1;PMS_P2;Temp;Humidity;BMP_temperature;BMP_pressure;BME280_temperature;BME280_humidity;BME280_pressure;Samples;Min_cycle;Max_cycle;Signal;HPM_P1;HPM_P2
2022/02/26 00:01:27;;;;;;;12.00;8.03;;;6.90;99.90;;;;;;5053058;28;20198;-67
2022/02/26 00:03:52;;;;;;;14.97;9.27;;;6.90;99.90;;;;;;5052169;28;20191;-67
2022/02/26 00:06:18;;;;;;;12.17;8.13;;;6.90;99.90;;;;;;5052664;28;20420;-71
2022/02/26 00:08:44;;;;;;;14.43;9.53;;;6.90;99.90;;;;;;5051718;28;20174;-67
2022/02/26 00:11:10;;;;;;;15.90;9.40;;;6.80;99.90;;;;;;5052883;28;20647;-67
2022/02/26 00:13:35;;;;;;;17.70;9.90;;;6.80;99.90;;;;;;5051958;28;20252;-67
2022/02/26 00:16:01;;;;;;;13.30;9.00;;;6.70;99.90;;;;;;5052857;28;20179;-67
2022/02/26 00:18:27;;;;;;;12.20;8.90;;;6.70;99.90;;;;;;5052612;28;20550;-66
2022/02/26 00:20:54;;;;;;;14.87;8.80;;;6.70;99.90;;;;;;5051750;28;20222;-67
2022/02/26 00:23:21;;;;;;;12.90;9.47;;;6.70;99.90;;;;;;5052426;28;20261;-66
2022/02/26 00:25:47;;;;;;;14.30;10.47;;;6.70;99.90;;;;;;5053006;28;20796;-66
2022/02/26 00:28:12;;;;;;;12.33;9.73;;;6.70;99.90;;;;;;5053476;28;20425;-66
2022/02/26 00:30:38;;;;;;;13.93;9.37;;;6.70;99.90;;;;;;5053060;28;20572;-66
2022/02/26 00:33:05;;;;;;;14.33;9.80;;;6.80;99.90;;;;;;5054030;28;20179;-70
2022/02/26 00:35:31;;;;;;;11.55;9.00;;;6.70;99.90;;;;;;5052447;28;20465;-77
2022/02/26 00:37:57;;;;;;;13.80;9.77;;;6.70;99.90;;;;;;5051694;28;20182;-67
2022/02/26 00:40:22;;;;;;;12.10;9.73;;;6.70;99.90;;;;;;5051111;28;20414;-66
2022/02/26 00:42:48;;;;;;;14.27;9.07;;;6.70;99.90;;;;;;5050896;28;20420;-67
2022/02/26 00:45:14;;;;;;;791.57;435.53;;;6.60;99.90;;;;;;5051593;28;20535;-67
2022/02/26 00:47:40;;;;;;;53.63;28.83;;;6.60;99.90;;;;;;5050254;28;20222;-67
2022/02/26 00:50:06;;;;;;;20.50;10.40;;;6.60;99.90;;;;;;5050286;28;20198;-66
2022/02/26 00:52:35;;;;;;;12.52;10.20;;;6.50;99.90;;;;;;5054232;28;20212;-66
2022/02/26 00:55:04;;;;;;;14.50;8.70;;;6.50;99.90;;;;;;5053656;28;20186;-68
2022/02/26 00:57:30;;;;;;;15.13;10.68;;;6.50;99.90;;;;;;5052204;28;20271;-81
2022/02/26 00:59:56;;;;;;;16.70;9.93;;;6.50;99.90;;;;;;5052248;28;20218;-69
2022/02/26 01:02:22;;;;;;;14.40;10.90;;;6.50;99.90;;;;;;5053096;28;20645;-68
2022/02/26 01:04:49;;;;;;;13.00;9.77;;;6.50;99.90;;;;;;5052165;28;20199;-68
2022/02/26 01:07:15;;;;;;;14.40;9.57;;;6.50;99.90;;;;;;5055486;28;20176;-68
2022/02/26 01:09:41;;;;;;;17.13;9.93;;;6.50;99.90;;;;;;5066137;28;20952;-68
2022/02/26 01:12:08;;;;;;;21.90;11.30;;;6.10;99.90;;;;;;5071183;28;20440;-68
2022/02/26 01:14:35;;;;;;;18.03;10.93;;;6.60;99.90;;;;;;5051760;28;20417;-71
2022/02/26 01:17:03;;;;;;;15.20;10.07;;;6.60;99.90;;;;;;5052865;28;20482;-68
2022/02/26 01:19:29;;;;;;;15.07;9.63;;;6.70;99.90;;;;;;5050417;28;20420;-68
2022/02/26 01:21:55;;;;;;;12.88;10.63;;;6.40;99.90;;;;;;5050855;28;20493;-72
2022/02/26 01:24:21;;;;;;;17.77;10.20;;;6.70;99.90;;;;;;5034926;28;20183;-69
2022/02/26 01:26:47;;;;;;;14.60;10.43;;;6.80;99.90;;;;;;5050601;28;20170;-68
2022/02/26 01:29:13;;;;;;;13.00;9.90;;;6.70;99.90;;;;;;5051611;28;20820;-68
2022/02/26 01:31:39;;;;;;;15.90;10.40;;;6.70;99.90;;;;;;5032853;28;20493;-68
2022/02/26 01:34:06;;;;;;;14.77;10.73;;;6.70;99.90;;;;;;5052410;28;20970;-68
2022/02/26 01:36:33;;;;;;;16.60;10.13;;;6.70;99.90;;;;;;5050292;28;20258;-81
2022/02/26 01:39:00;;;;;;;13.27;10.60;;;6.70;99.90;;;;;;5049862;28;20393;-68
2022/02/26 01:41:31;;;;;;;20.97;10.63;;;6.70;99.90;;;;;;5052672;28;20417;-68
2022/02/26 01:43:57;;;;;;;12.60;9.67;;;6.70;99.90;;;;;;5050564;28;20377;-68
2022/02/26 01:46:23;;;;;;;18.00;9.37;;;6.60;99.90;;;;;;5051765;28;20978;-67
2022/02/26 01:48:50;;;;;;;19.70;10.37;;;6.70;99.90;;;;;;5051938;28;20406;-68
2022/02/26 01:51:17;;;;;;;15.90;10.37;;;6.70;99.90;;;;;;5052133;28;20454;-68
2022/02/26 01:53:43;;;;;;;16.40;10.57;;;6.70;99.90;;;;;;5051120;28;20751;-81
2022/02/26 01:56:10;;;;;;;15.33;9.77;;;6.70;99.90;;;;;;5047530;28;20415;-68
2022/02/26 01:58:36;;;;;;;14.10;9.40;;;6.30;99.90;;;;;;5051028;28;20417;-69
2022/02/26 02:01:04;;;;;;;13.53;9.67;;;6.70;99.90;;;;;;5052067;28;20770;-68
2022/02/26 02:03:30;;;;;;;18.53;11.07;;;6.60;99.90;;;;;;5052117;28;20410;-68
2022/02/26 02:05:57;;;;;;;18.03;9.90;;;6.60;99.90;;;;;;5051419;28;20454;-68
2022/02/26 02:08:24;;;;;;;13.32;9.27;;;6.50;99.90;;;;;;5051480;28;20832;-69
2022/02/26 02:10:51;;;;;;;14.97;9.33;;;6.50;99.90;;;;;;5049746;28;20202;-68
2022/02/26 02:13:19;;;;;;;10.93;9.40;;;6.30;99.90;;;;;;5051570;28;20956;-68
2022/02/26 02:15:45;;;;;;;14.63;10.37;;;6.50;99.90;;;;;;5049809;28;20642;-68
2022/02/26 02:18:13;;;;;;;17.20;11.23;;;6.50;99.90;;;;;;5052055;28;20421;-68
2022/02/26 02:20:40;;;;;;;16.60;10.13;;;6.50;99.90;;;;;;5049432;28;20464;-69
2022/02/26 02:23:05;;;;;;;13.23;10.10;;;6.40;99.90;;;;;;5051183;28;20193;-68
2022/02/26 02:25:34;;;;;;;13.87;9.40;;;6.40;99.90;;;;;;5049426;28;20525;-68
2022/02/26 02:28:01;;;;;;;15.25;9.85;;;6.40;99.90;;;;;;5051307;28;20431;-68
2022/02/26 02:30:28;;;;;;;13.75;9.82;;;6.30;99.90;;;;;;5051626;28;20217;-68
2022/02/26 02:32:55;;;;;;;14.50;9.55;;;6.30;99.90;;;;;;5051037;28;20193;-68
2022/02/26 02:35:33;;;;;;;13.75;9.30;;;6.30;99.90;;;;;;5051773;28;20251;-69
2022/02/26 02:38:02;;;;;;;12.15;9.50;;;6.20;99.90;;;;;;5049902;28;20193;-68
2022/02/26 02:40:28;;;;;;;10.85;8.73;;;6.20;99.90;;;;;;5051992;28;20265;-68
2022/02/26 02:42:54;;;;;;;14.63;10.15;;;6.10;99.90;;;;;;5049889;28;20240;-68
2022/02/26 02:45:21;;;;;;;12.77;10.00;;;6.10;99.90;;;;;;5054070;28;20626;-68
2022/02/26 02:47:47;;;;;;;14.80;10.60;;;6.10;99.90;;;;;;5053201;28;20391;-68
2022/02/26 02:50:13;;;;;;;15.18;9.70;;;6.00;99.90;;;;;;5054176;28;20198;-68
2022/02/26 02:52:39;;;;;;;12.27;10.10;;;6.00;99.90;;;;;;5053302;28;20239;-71
2022/02/26 02:55:06;;;;;;;11.23;9.90;;;6.00;99.90;;;;;;5053849;28;20927;-69
2022/02/26 02:57:32;;;;;;;12.15;9.73;;;5.90;99.90;;;;;;5052798;28;20171;-71
2022/02/26 02:59:58;;;;;;;15.40;10.20;;;5.60;99.90;;;;;;5051676;28;20235;-68
2022/02/26 03:02:23;;;;;;;15.03;10.60;;;5.90;99.90;;;;;;5053305;28;20189;-69
2022/02/26 03:04:49;;;;;;;20.80;9.90;;;6.00;99.90;;;;;;5053488;28;20808;-68
2022/02/26 03:07:16;;;;;;;12.30;9.80;;;5.80;99.90;;;;;;5052783;28;20265;-69
2022/02/26 03:09:42;;;;;;;11.45;9.85;;;5.90;99.90;;;;;;5035290;28;20569;-68
2022/02/26 03:12:08;;;;;;;12.52;9.90;;;5.80;99.90;;;;;;5052601;28;20698;-69
2022/02/26 03:14:34;;;;;;;13.65;9.98;;;5.80;99.90;;;;;;5052331;28;20202;-78
2022/02/26 03:17:00;;;;;;;10.30;9.27;;;5.80;99.90;;;;;;5053164;28;20202;-68
2022/02/26 03:19:26;;;;;;;15.83;10.80;;;5.80;99.90;;;;;;5054455;28;20177;-68
2022/02/26 03:21:51;;;;;;;11.97;10.70;;;5.80;99.90;;;;;;5054492;28;20234;-68
2022/02/26 03:24:17;;;;;;;14.13;10.80;;;5.80;99.90;;;;;;5054280;28;20205;-68
2022/02/26 03:26:43;;;;;;;15.67;10.40;;;6.00;99.90;;;;;;5054053;28;20201;-68
2022/02/26 03:29:09;;;;;;;15.30;9.27;;;5.80;99.90;;;;;;5053560;28;20669;-68
2022/02/26 03:31:38;;;;;;;22.15;11.25;;;5.90;99.90;;;;;;5054863;28;20251;-77
2022/02/26 03:34:04;;;;;;;23.00;10.55;;;5.90;99.90;;;;;;5055046;28;20174;-68
2022/02/26 03:36:34;;;;;;;16.57;10.10;;;5.90;99.90;;;;;;5054796;28;20645;-68
2022/02/26 03:39:04;;;;;;;19.40;10.02;;;5.90;99.90;;;;;;5053594;28;20445;-68
2022/02/26 03:41:30;;;;;;;15.93;9.60;;;5.90;99.90;;;;;;5054669;28;20170;-68
2022/02/26 03:43:56;;;;;;;17.85;10.38;;;6.00;99.90;;;;;;5053958;28;20170;-68
2022/02/26 03:46:23;;;;;;;15.60;10.30;;;6.00;99.90;;;;;;5054771;28;20288;-68
2022/02/26 03:48:52;;;;;;;15.23;9.02;;;6.00;99.90;;;;;;5053682;28;20379;-68
2022/02/26 03:51:18;;;;;;;20.45;10.25;;;6.00;99.90;;;;;;5069153;28;20202;-68
2022/02/26 03:53:44;;;;;;;14.13;9.67;;;6.00;99.90;;;;;;5054135;28;20178;-68
2022/02/26 03:56:10;;;;;;;23.40;11.97;;;6.00;99.90;;;;;;5054127;28;20178;-68
2022/02/26 03:58:35;;;;;;;18.17;10.85;;;5.60;99.90;;;;;;5052974;28;20265;-78
2022/02/26 04:01:01;;;;;;;12.97;10.57;;;6.00;99.90;;;;;;5054001;28;20260;-68
2022/02/26 04:03:27;;;;;;;14.73;10.13;;;6.00;99.90;;;;;;5054471;28;20649;-68
2022/02/26 04:05:53;;;;;;;16.50;12.60;;;6.00;99.90;;;;;;5053489;28;20224;-68
2022/02/26 04:08:18;;;;;;;17.53;12.30;;;6.00;99.90;;;;;;5054071;28;20174;-68
2022/02/26 04:10:44;;;;;;;16.77;12.53;;;6.00;99.90;;;;;;5053491;28;20427;-68
2022/02/26 04:13:10;;;;;;;16.73;12.40;;;6.10;99.90;;;;;;5054217;28;20187;-68
2022/02/26 04:15:36;;;;;;;16.67;11.97;;;6.00;99.90;;;;;;5052928;28;20178;-75
2022/02/26 04:18:01;;;;;;;15.53;11.47;;;6.00;99.90;;;;;;5052027;28;20184;-68
2022/02/26 04:20:27;;;;;;;20.53;11.20;;;6.00;99.90;;;;;;5053714;28;20438;-68
2022/02/26 04:22:53;;;;;;;14.43;10.47;;;6.00;99.90;;;;;;5053534;28;20551;-69
2022/02/26 04:25:19;;;;;;;14.50;11.30;;;6.00;99.90;;;;;;5053977;28;20182;-68
2022/02/26 04:27:44;;;;;;;15.03;10.57;;;6.00;99.90;;;;;;5051953;28;20638;-68
2022/02/26 04:30:11;;;;;;;15.00;10.67;;;6.00;99.90;;;;;;5052205;28;20224;-68
2022/02/26 04:32:38;;;;;;;19.45;11.30;;;6.20;99.90;;;;;;5053871;28;20178;-67
2022/02/26 04:35:05;;;;;;;14.27;9.75;;;6.00;99.90;;;;;;5051725;28;20185;-68
2022/02/26 04:37:31;;;;;;;15.20;9.85;;;6.00;99.90;;;;;;5052296;28;20265;-68
2022/02/26 04:39:58;;;;;;;16.73;9.77;;;5.70;99.90;;;;;;5053016;28;20185;-68
2022/02/26 04:42:25;;;;;;;17.27;8.57;;;5.90;99.90;;;;;;5053510;28;20206;-68
2022/02/26 04:44:51;;;;;;;14.35;9.70;;;5.80;99.90;;;;;;5052610;28;20181;-68
2022/02/26 04:47:16;;;;;;;21.47;11.77;;;5.80;99.90;;;;;;5052923;28;20181;-71
2022/02/26 04:49:42;;;;;;;18.20;12.57;;;5.50;99.90;;;;;;5052567;28;20239;-78
2022/02/26 04:52:09;;;;;;;12.30;11.00;;;5.60;99.90;;;;;;5052448;28;20231;-68
2022/02/26 04:54:35;;;;;;;19.73;11.02;;;5.60;99.90;;;;;;5052202;28;20503;-68
2022/02/26 04:57:00;;;;;;;20.80;11.43;;;5.60;99.90;;;;;;5051391;28;20269;-68
2022/02/26 04:59:26;;;;;;;14.53;12.00;;;5.60;99.90;;;;;;5051504;28;20438;-69
2022/02/26 05:01:52;;;;;;;18.83;12.83;;;5.50;99.90;;;;;;5052189;28;20832;-68
2022/02/26 05:04:18;;;;;;;17.70;12.03;;;5.50;99.90;;;;;;5052459;28;20178;-68
2022/02/26 05:06:43;;;;;;;17.33;12.33;;;5.10;99.90;;;;;;5051200;28;20169;-78
2022/02/26 05:09:09;;;;;;;15.50;11.17;;;5.50;99.90;;;;;;5051964;28;20197;-68
2022/02/26 05:11:35;;;;;;;16.87;11.40;;;5.00;99.90;;;;;;5051581;28;20206;-68
2022/02/26 05:14:01;;;;;;;15.13;10.40;;;5.50;99.90;;;;;;5051585;28;20361;-68
2022/02/26 05:16:27;;;;;;;12.37;9.63;;;5.40;99.90;;;;;;5053427;28;20896;-68
2022/02/26 05:18:52;;;;;;;15.37;11.77;;;5.40;99.90;;;;;;5050669;28;20673;-68
2022/02/26 05:21:18;;;;;;;18.20;11.40;;;5.00;99.90;;;;;;5052368;28;20336;-68
2022/02/26 05:23:44;;;;;;;13.07;10.00;;;5.30;99.90;;;;;;5014558;28;20645;-78
2022/02/26 05:26:11;;;;;;;17.43;12.37;;;5.20;99.90;;;;;;5050985;28;20882;-68
2022/02/26 05:28:38;;;;;;;15.95;10.45;;;5.20;99.90;;;;;;5034707;28;20205;-68
2022/02/26 05:31:04;;;;;;;14.90;11.07;;;5.20;99.90;;;;;;5051918;28;20351;-68
2022/02/26 05:33:30;;;;;;;13.57;9.57;;;4.90;99.90;;;;;;5052466;28;20186;-74
2022/02/26 05:35:56;;;;;;;17.90;10.45;;;5.10;99.90;;;;;;5051986;28;20228;-68
2022/02/26 05:38:22;;;;;;;18.90;11.70;;;5.10;99.90;;;;;;5052220;28;20173;-68
2022/02/26 05:40:47;;;;;;;15.20;10.80;;;5.10;99.90;;;;;;5051641;28;20273;-68
2022/02/26 05:43:13;;;;;;;17.70;11.70;;;5.10;99.90;;;;;;5051441;28;20182;-67
2022/02/26 05:45:40;;;;;;;15.70;10.80;;;4.70;99.90;;;;;;5052015;28;20182;-68
2022/02/26 05:48:06;;;;;;;13.43;9.63;;;5.20;99.90;;;;;;5051784;28;20204;-68
2022/02/26 05:50:32;;;;;;;12.50;10.57;;;5.00;99.90;;;;;;5052614;28;20197;-68
2022/02/26 05:52:58;;;;;;;15.40;10.70;;;5.10;99.90;;;;;;5051448;28;20193;-68
2022/02/26 05:55:24;;;;;;;13.63;10.10;;;5.00;99.90;;;;;;5051995;28;20411;-69
2022/02/26 05:57:50;;;;;;;11.73;10.45;;;5.00;99.90;;;;;;5035203;28;20501;-68
2022/02/26 06:00:16;;;;;;;18.37;10.60;;;5.00;99.90;;;;;;5072167;28;20287;-68
2022/02/26 06:02:42;;;;;;;16.53;10.87;;;5.00;99.90;;;;;;5068702;28;20172;-75
2022/02/26 06:05:08;;;;;;;14.10;10.27;;;5.00;99.90;;;;;;5051000;28;20730;-68
2022/02/26 06:07:34;;;;;;;16.15;10.02;;;5.00;99.90;;;;;;5052287;28;20650;-68
2022/02/26 06:10:00;;;;;;;13.23;10.40;;;4.70;99.90;;;;;;5049923;28;20259;-68
2022/02/26 06:12:25;;;;;;;14.93;9.50;;;4.90;99.90;;;;;;5051708;28;20550;-68
2022/02/26 06:14:51;;;;;;;16.47;10.73;;;5.00;99.90;;;;;;5049944;28;20255;-69
2022/02/26 06:17:17;;;;;;;15.02;10.82;;;4.90;99.90;;;;;;5050842;28;20185;-69
2022/02/26 06:19:43;;;;;;;12.87;10.90;;;4.90;99.90;;;;;;5051946;28;20209;-73
2022/02/26 06:22:09;;;;;;;18.20;11.40;;;4.90;99.90;;;;;;5050790;28;20213;-69
2022/02/26 06:24:35;;;;;;;13.63;10.60;;;4.90;99.90;;;;;;5051607;28;20943;-69
2022/02/26 06:27:01;;;;;;;17.40;10.93;;;4.80;99.90;;;;;;5051259;28;20550;-69
2022/02/26 06:29:26;;;;;;;13.70;10.77;;;4.40;99.90;;;;;;5051596;28;20231;-69
2022/02/26 06:31:52;;;;;;;16.93;11.40;;;4.90;99.90;;;;;;5050010;28;20480;-69
2022/02/26 06:34:18;;;;;;;16.40;11.87;;;4.90;99.90;;;;;;5051386;28;20209;-69
2022/02/26 06:36:43;;;;;;;19.73;12.07;;;4.90;99.90;;;;;;5051450;28;20185;-68
2022/02/26 06:39:09;;;;;;;19.30;13.10;;;4.90;99.90;;;;;;5051802;28;20182;-70
2022/02/26 06:41:35;;;;;;;16.20;12.63;;;4.90;99.90;;;;;;5058769;28;20169;-69
2022/02/26 06:44:02;;;;;;;18.67;12.70;;;5.00;99.90;;;;;;5071095;28;20644;-69
2022/02/26 06:46:27;;;;;;;17.52;12.77;;;4.90;99.90;;;;;;5060144;28;20206;-69
2022/02/26 06:48:53;;;;;;;18.00;12.27;;;5.00;99.90;;;;;;5050919;28;20605;-69
2022/02/26 06:51:19;;;;;;;17.52;12.65;;;5.00;99.90;;;;;;5051387;28;20794;-69
2022/02/26 06:53:45;;;;;;;22.48;13.73;;;5.00;99.90;;;;;;5051050;28;20634;-76
2022/02/26 06:56:11;;;;;;;15.13;12.60;;;5.00;99.90;;;;;;5050751;28;20182;-69
2022/02/26 06:58:38;;;;;;;21.23;13.80;;;4.60;99.90;;;;;;5051542;28;20304;-69
2022/02/26 07:01:04;;;;;;;24.55;15.75;;;5.10;99.90;;;;;;5050891;28;20231;-69
2022/02/26 07:03:30;;;;;;;24.17;13.27;;;4.90;99.90;;;;;;5050912;28;20178;-69
2022/02/26 07:05:56;;;;;;;19.33;13.88;;;5.20;99.90;;;;;;5049567;28;20626;-69
2022/02/26 07:08:21;;;;;;;21.20;14.30;;;5.30;99.90;;;;;;5050821;28;20170;-69
2022/02/26 07:10:47;;;;;;;19.50;13.50;;;5.30;99.90;;;;;;5050715;28;20601;-74
2022/02/26 07:13:13;;;;;;;18.60;13.67;;;5.40;99.90;;;;;;5048957;28;20182;-69
2022/02/26 07:15:38;;;;;;;18.43;14.60;;;5.40;99.90;;;;;;5051079;28;20618;-68
2022/02/26 07:18:05;;;;;;;21.40;13.10;;;5.40;99.90;;;;;;5050761;28;20181;-68
2022/02/26 07:20:31;;;;;;;19.33;13.50;;;5.50;99.90;;;;;;5050632;28;20218;-69
2022/02/26 07:22:57;;;;;;;19.87;14.10;;;5.40;99.90;;;;;;5050624;28;20197;-69
2022/02/26 07:25:24;;;;;;;21.83;14.60;;;5.50;99.90;;;;;;5050355;28;20406;-69
2022/02/26 07:27:50;;;;;;;19.98;14.10;;;5.30;99.90;;;;;;5050775;28;20228;-74
2022/02/26 07:30:15;;;;;;;17.73;13.30;;;5.50;99.90;;;;;;5032930;28;20658;-69
2022/02/26 07:32:41;;;;;;;18.00;12.80;;;5.50;99.90;;;;;;5053836;28;20212;-68
2022/02/26 07:35:07;;;;;;;23.27;15.40;;;5.40;99.90;;;;;;5053109;28;20181;-70
2022/02/26 07:37:33;;;;;;;21.55;14.05;;;5.40;99.90;;;;;;5054979;28;20408;-70
2022/02/26 07:39:59;;;;;;;20.83;15.40;;;5.40;99.90;;;;;;5053877;28;20695;-70
2022/02/26 07:42:26;;;;;;;21.57;14.30;;;5.50;99.90;;;;;;5053849;28;20653;-70
2022/02/26 07:44:52;;;;;;;18.45;14.02;;;5.40;99.90;;;;;;5069000;28;20188;-80
2022/02/26 07:47:18;;;;;;;23.15;14.27;;;5.60;99.90;;;;;;5054809;28;20177;-69
2022/02/26 07:49:44;;;;;;;21.97;14.10;;;5.60;99.90;;;;;;5054661;28;20641;-69
2022/02/26 07:52:09;;;;;;;21.77;15.00;;;5.60;99.90;;;;;;5053084;28;20619;-69
2022/02/26 07:54:35;;;;;;;22.33;15.63;;;5.60;99.90;;;;;;5054024;28;20178;-71
2022/02/26 07:57:01;;;;;;;23.40;15.83;;;5.70;99.90;;;;;;5052221;28;20193;-69
2022/02/26 07:59:26;;;;;;;27.80;17.40;;;5.70;99.90;;;;;;5054367;28;20534;-69
2022/02/26 08:01:56;;;;;;;24.20;16.87;;;5.70;99.90;;;;;;5053668;28;20190;-74
2022/02/26 08:04:22;;;;;;;23.30;16.50;;;5.70;99.90;;;;;;5054098;28;20185;-69
2022/02/26 08:06:47;;;;;;;24.70;17.77;;;5.90;99.90;;;;;;5053781;28;20178;-69
2022/02/26 08:09:13;;;;;;;25.63;17.50;;;5.90;99.90;;;;;;5053090;28;20439;-69
2022/02/26 08:11:40;;;;;;;22.27;15.57;;;5.60;99.90;;;;;;5053858;28;20251;-68
2022/02/26 08:14:07;;;;;;;24.50;16.20;;;5.60;99.90;;;;;;5051255;28;20257;-68
2022/02/26 08:16:33;;;;;;;20.35;14.48;;;6.10;99.90;;;;;;5053231;28;20174;-69
2022/02/26 08:18:58;;;;;;;28.47;15.77;;;6.10;99.90;;;;;;5052841;28;20193;-69
2022/02/26 08:21:25;;;;;;;29.03;16.83;;;6.20;99.90;;;;;;5053274;28;20272;-68
2022/02/26 08:23:52;;;;;;;23.67;16.27;;;6.40;99.90;;;;;;5057952;28;20225;-75
2022/02/26 08:26:19;;;;;;;25.63;16.53;;;6.10;99.90;;;;;;5054098;28;20187;-68
2022/02/26 08:28:45;;;;;;;28.70;16.27;;;6.40;99.90;;;;;;5052451;28;20423;-68
2022/02/26 08:31:11;;;;;;;22.53;16.97;;;6.50;99.90;;;;;;5052955;28;20443;-69
2022/02/26 08:33:37;;;;;;;26.33;15.27;;;6.50;99.90;;;;;;5052766;28;20425;-69
2022/02/26 08:36:03;;;;;;;29.67;18.53;;;6.60;99.90;;;;;;5052735;28;20563;-69
2022/02/26 08:38:29;;;;;;;27.30;17.70;;;6.60;99.90;;;;;;5038210;28;20179;-70
2022/02/26 08:40:54;;;;;;;25.10;17.10;;;6.70;99.90;;;;;;5051505;28;20403;-76
2022/02/26 08:43:21;;;;;;;26.83;17.00;;;6.80;99.90;;;;;;5052373;28;20172;-69
2022/02/26 08:45:47;;;;;;;28.53;17.53;;;6.80;99.90;;;;;;5052290;28;20185;-69
2022/02/26 08:48:13;;;;;;;26.98;17.30;;;6.90;99.90;;;;;;5051711;28;20427;-69
2022/02/26 08:50:39;;;;;;;24.40;16.03;;;6.90;99.90;;;;;;5051515;28;20250;-69
2022/02/26 08:53:04;;;;;;;24.27;17.73;;;6.90;99.90;;;;;;5052573;28;20447;-69
2022/02/26 08:55:31;;;;;;;24.87;17.90;;;7.00;99.90;;;;;;5053252;28;20312;-69
2022/02/26 08:57:56;;;;;;;27.17;17.00;;;7.10;99.90;;;;;;5052014;28;20731;-70
2022/02/26 09:00:22;;;;;;;29.20;17.10;;;7.20;99.90;;;;;;5052004;28;20432;-70
2022/02/26 09:02:48;;;;;;;28.40;18.87;;;7.30;99.90;;;;;;5053421;28;20205;-69
2022/02/26 09:05:14;;;;;;;30.87;18.43;;;7.40;99.90;;;;;;5051644;28;20183;-69
2022/02/26 09:07:40;;;;;;;27.50;17.00;;;7.50;99.90;;;;;;5053300;28;20184;-69
2022/02/26 09:10:06;;;;;;;28.50;18.93;;;7.40;99.90;;;;;;5052365;28;20493;-69
2022/02/26 09:12:32;;;;;;;27.03;18.10;;;7.70;99.90;;;;;;5051463;28;20260;-70
2022/02/26 09:14:58;;;;;;;26.87;19.17;;;7.80;99.90;;;;;;5052520;28;20564;-70
2022/02/26 09:17:24;;;;;;;25.30;17.87;;;7.80;99.90;;;;;;5052923;28;20204;-69
2022/02/26 09:19:51;;;;;;;31.90;19.90;;;7.90;99.90;;;;;;5051443;28;20260;-68
2022/02/26 09:22:18;;;;;;;30.30;19.97;;;8.00;99.90;;;;;;5052232;28;20944;-69
2022/02/26 09:24:44;;;;;;;26.03;19.23;;;8.10;99.90;;;;;;5053159;28;20448;-69
2022/02/26 09:27:10;;;;;;;26.20;19.10;;;8.20;99.90;;;;;;5052270;28;20502;-69
2022/02/26 09:29:35;;;;;;;27.07;19.13;;;8.20;99.90;;;;;;5052392;28;20646;-69
2022/02/26 09:32:01;;;;;;;34.67;20.30;;;8.30;99.90;;;;;;5051562;28;20228;-71
2022/02/26 09:34:29;;;;;;;28.80;19.63;;;8.40;99.90;;;;;;5048916;28;20209;-69
2022/02/26 09:36:55;;;;;;;29.60;19.57;;;8.50;99.90;;;;;;5051620;28;20431;-77
2022/02/26 09:39:21;;;;;;;30.03;19.97;;;8.60;99.90;;;;;;5050993;28;20426;-69
2022/02/26 09:41:48;;;;;;;31.73;19.90;;;8.90;99.90;;;;;;5052382;28;20419;-69
2022/02/26 09:44:19;;;;;;;32.80;18.73;;;9.10;99.90;;;;;;5052040;28;20408;-70
2022/02/26 09:46:45;;;;;;;26.20;18.63;;;9.40;99.90;;;;;;5052555;28;20393;-70
2022/02/26 09:49:10;;;;;;;31.93;20.47;;;9.70;99.90;;;;;;5051271;28;20431;-69
2022/02/26 09:51:41;;;;;;;32.70;19.00;;;10.00;99.90;;;;;;5052514;28;20206;-70
2022/02/26 09:54:08;;;;;;;29.20;19.23;;;10.40;99.40;;;;;;5049950;28;20568;-70
2022/02/26 09:56:34;;;;;;;19.03;15.40;;;10.70;97.70;;;;;;5051283;28;20493;-70
2022/02/26 09:58:59;;;;;;;25.33;18.60;;;11.20;96.10;;;;;;5051054;28;20425;-72
2022/02/26 10:01:25;;;;;;;25.90;17.83;;;11.60;96.70;;;;;;5052084;28;20974;-69
2022/02/26 10:04:11;;;;;;;24.07;16.50;;;12.00;95.60;;;;;;5052450;28;20535;-70
2022/02/26 10:06:37;;;;;;;20.10;16.33;;;12.40;93.80;;;;;;5051718;28;20167;-70
2022/02/26 10:09:10;;;;;;;21.23;16.77;;;12.60;92.60;;;;;;5051071;28;20423;-70
2022/02/26 10:11:38;;;;;;;21.30;16.07;;;12.80;92.20;;;;;;5051002;28;20554;-70
2022/02/26 10:14:24;;;;;;;22.10;15.40;;;12.90;92.00;;;;;;5051576;28;20465;-70
2022/02/26 10:16:56;;;;;;;24.13;16.60;;;13.00;92.30;;;;;;5053210;28;20491;-70
2022/02/26 10:19:29;;;;;;;19.83;15.17;;;13.20;91.30;;;;;;5051620;28;20412;-70
2022/02/26 10:21:59;;;;;;;21.03;15.13;;;13.30;90.30;;;;;;5051218;28;20473;-70
2022/02/26 10:24:25;;;;;;;18.53;14.27;;;13.40;91.00;;;;;;5051631;28;20419;-69
2022/02/26 10:26:54;;;;;;;18.30;13.97;;;13.60;88.30;;;;;;5051618;28;20441;-70
2022/02/26 10:29:24;;;;;;;16.30;12.53;;;13.70;87.60;;;;;;5051284;28;20405;-70
2022/02/26 10:31:55;;;;;;;16.23;12.90;;;13.90;86.30;;;;;;5051676;28;20463;-70
2022/02/26 10:34:28;;;;;;;18.03;13.20;;;14.10;89.00;;;;;;5050716;28;20415;-70
2022/02/26 10:37:08;;;;;;;14.93;12.30;;;14.40;86.60;;;;;;5051601;28;20431;-70
2022/02/26 10:39:42;;;;;;;17.67;11.40;;;14.70;81.80;;;;;;5050554;28;20494;-69
2022/02/26 10:42:29;;;;;;;15.40;11.60;;;14.90;82.30;;;;;;5049547;28;20430;-69
2022/02/26 10:45:00;;;;;;;16.33;12.27;;;15.10;75.70;;;;;;5053082;28;20430;-69
2022/02/26 10:47:31;;;;;;;18.37;11.90;;;15.20;78.70;;;;;;5053565;28;20421;-69
2022/02/26 10:49:57;;;;;;;16.80;11.80;;;15.50;80.00;;;;;;5032190;28;20450;-68
2022/02/26 10:52:29;;;;;;;18.60;12.20;;;15.70;77.60;;;;;;5031538;28;20470;-69
2022/02/26 10:55:00;;;;;;;14.60;9.77;;;15.90;72.70;;;;;;5042500;28;20426;-69
2022/02/26 10:57:32;;;;;;;7.70;6.60;;;16.00;73.50;;;;;;5052355;28;20564;-69
2022/02/26 10:59:58;;;;;;;9.27;5.80;;;16.20;67.90;;;;;;5051598;28;20411;-69
2022/02/26 11:02:25;;;;;;;11.63;4.50;;;16.30;65.00;;;;;;5051080;28;20412;-69
2022/02/26 11:04:56;;;;;;;5.70;4.70;;;16.50;58.40;;;;;;5051202;28;20440;-69
2022/02/26 11:07:23;;;;;;;13.07;5.00;;;16.30;57.90;;;;;;5054538;28;20410;-69
2022/02/26 11:09:54;;;;;;;6.90;3.73;;;16.00;58.00;;;;;;5054961;28;20435;-69
2022/02/26 11:12:27;;;;;;;6.77;4.07;;;15.70;56.50;;;;;;5054801;28;20414;-69
2022/02/26 11:15:03;;;;;;;6.37;3.40;;;15.10;56.90;;;;;;5055207;28;20410;-68
2022/02/26 11:17:30;;;;;;;10.47;4.20;;;15.00;59.40;;;;;;5054748;28;20757;-68
2022/02/26 11:19:59;;;;;;;5.30;3.80;;;15.10;60.80;;;;;;5054921;28;20421;-70
2022/02/26 11:22:26;;;;;;;4.10;3.13;;;15.50;64.30;;;;;;5054691;28;20453;-69
2022/02/26 11:24:53;;;;;;;11.17;7.07;;;15.70;60.20;;;;;;5053578;28;20526;-69
2022/02/26 11:27:25;;;;;;;6.93;4.03;;;15.90;58.10;;;;;;5052726;28;20424;-69
2022/02/26 11:29:51;;;;;;;4.50;4.10;;;16.00;58.80;;;;;;5052519;28;20460;-71
2022/02/26 11:32:20;;;;;;;4.90;3.70;;;16.20;57.30;;;;;;5053346;28;20430;-70
2022/02/26 11:34:47;;;;;;;6.90;4.17;;;16.10;54.70;;;;;;5059391;28;20513;-70
2022/02/26 11:37:18;;;;;;;8.10;4.37;;;16.00;57.90;;;;;;5052929;28;20419;-70
2022/02/26 11:39:49;;;;;;;6.53;3.60;;;15.90;58.00;;;;;;5054629;28;20415;-71
2022/02/26 11:42:23;;;;;;;12.50;5.93;;;16.00;58.80;;;;;;5052012;28;20510;-70
2022/02/26 11:45:03;;;;;;;9.30;3.77;;;15.30;55.70;;;;;;5052703;28;20459;-70
2022/02/26 11:47:36;;;;;;;5.40;3.50;;;15.20;57.70;;;;;;5053198;28;20429;-70
2022/02/26 11:50:21;;;;;;;9.93;3.70;;;15.20;56.70;;;;;;5052880;28;20471;-77
2022/02/26 11:52:53;;;;;;;7.57;3.57;;;14.90;55.20;;;;;;5051350;28;20776;-70
2022/02/26 11:55:32;;;;;;;7.23;4.00;;;14.90;57.40;;;;;;5053145;28;20425;-69
2022/02/26 11:58:04;;;;;;;7.87;3.93;;;15.00;58.70;;;;;;5054100;28;20445;-69
2022/02/26 12:01:06;;;;;;;4.00;3.60;;;15.20;58.50;;;;;;5053116;28;20441;-70
2022/02/26 12:03:41;;;;;;;4.70;3.73;;;15.20;56.00;;;;;;5040546;28;20438;-69
2022/02/26 12:06:12;;;;;;;6.00;3.43;;;15.20;57.10;;;;;;5051086;28;20425;-74
2022/02/26 12:08:39;;;;;;;7.00;3.53;;;15.10;56.60;;;;;;5053577;28;20467;-68
2022/02/26 12:11:11;;;;;;;7.70;3.80;;;14.80;55.10;;;;;;5052837;28;21054;-75
2022/02/26 12:13:42;;;;;;;4.83;3.60;;;14.70;57.60;;;;;;5053935;28;20411;-68
2022/02/26 12:16:22;;;;;;;5.40;3.30;;;14.90;58.90;;;;;;5053080;28;20881;-69
2022/02/26 12:18:58;;;;;;;143.20;86.17;;;14.30;57.70;;;;;;5051005;28;20429;-69
2022/02/26 12:21:30;;;;;;;134.30;75.30;;;14.40;59.80;;;;;;5047404;28;20550;-70
2022/02/26 12:24:10;;;;;;;16.00;8.20;;;14.50;59.30;;;;;;5051683;28;20416;-69
2022/02/26 12:26:57;;;;;;;7.20;3.90;;;14.70;60.30;;;;;;5053107;28;20425;-72
2022/02/26 12:29:26;;;;;;;6.77;3.87;;;14.90;59.40;;;;;;5047966;28;20552;-71
2022/02/26 12:32:12;;;;;;;6.83;3.93;;;15.10;58.50;;;;;;5050079;28;20790;-72
2022/02/26 12:34:39;;;;;;;6.77;3.27;;;15.40;57.50;;;;;;5052610;28;20495;-69
2022/02/26 12:37:05;;;;;;;5.30;3.10;;;15.50;59.20;;;;;;5051981;28;20407;-76
2022/02/26 12:39:31;;;;;;;7.23;3.80;;;15.60;57.40;;;;;;5052758;28;20468;-69